Time,TemperatureF,DewpointF,PressureIn,WindDirection,WindDirectionDegrees,WindSpeedMPH,WindSpeedGustMPH,Humidity,HourlyPrecipIn,Conditions,Clouds,dailyrainin,SoftwareType,DateUTC
2013-03-25 00:01:00,37.3,36.0,29.62,ESE,115,3.0,5.0,96,0.00,,,0.72,weatherlink.com 1.10,2013-03-25 02:01:00,
2013-03-25 00:18:00,37.2,36.0,29.63,ESE,114,3.0,4.0,96,0.01,,,0.73,weatherlink.com 1.10,2013-03-25 02:18:00,
2013-03-25 00:34:00,37.1,36.0,29.62,ESE,112,3.0,5.0,96,0.01,,,0.73,weatherlink.com 1.10,2013-03-25 02:34:00,
2013-03-25 00:50:00,37.2,36.0,29.62,ESE,112,2.0,4.0,96,0.01,,,0.73,weatherlink.com 1.10,2013-03-25 02:50:00,
2013-03-25 01:07:00,36.9,36.0,29.63,ENE,65,1.0,5.0,96,0.01,,,0.73,weatherlink.com 1.10,2013-03-25 03:07:00,
2013-03-25 01:23:00,36.9,36.0,29.63,ENE,66,1.0,3.0,96,0.00,,,0.73,weatherlink.com 1.10,2013-03-25 03:23:00,
2013-03-25 01:39:00,36.8,36.0,29.62,East,87,1.0,5.0,96,0.00,,,0.73,weatherlink.com 1.10,2013-03-25 03:39:00,
2013-03-25 01:55:00,36.8,36.0,29.62,SE,126,2.0,5.0,96,0.00,,,0.73,weatherlink.com 1.10,2013-03-25 03:55:00,
2013-03-25 02:12:00,36.6,36.0,29.61,ESE,118,3.0,4.0,96,0.02,,,0.01,weatherlink.com 1.10,2013-03-25 04:12:00,
2013-03-25 02:28:00,36.2,35.0,29.61,ENE,76,2.0,5.0,96,0.03,,,0.02,weatherlink.com 1.10,2013-03-25 04:28:00,
2013-03-25 02:44:00,36.2,35.0,29.61,ENE,76,0.0,3.0,96,0.04,,,0.03,weatherlink.com 1.10,2013-03-25 04:44:00,
2013-03-25 03:00:00,36.2,35.0,29.61,ENE,76,0.0,3.0,97,0.04,,,0.04,weatherlink.com 1.10,2013-03-25 05:00:00,
2013-03-25 03:17:00,36.4,36.0,29.60,ENE,77,1.0,3.0,97,0.03,,,0.04,weatherlink.com 1.10,2013-03-25 05:17:00,
2013-03-25 03:34:00,36.2,35.0,29.60,ENE,77,0.0,2.0,97,0.01,,,0.04,weatherlink.com 1.10,2013-03-25 05:34:00,
2013-03-25 03:50:00,36.1,35.0,29.60,ENE,78,1.0,3.0,97,0.01,,,0.04,weatherlink.com 1.10,2013-03-25 05:50:00,
2013-03-25 04:06:00,36.3,36.0,29.59,ENE,78,1.0,3.0,97,0.00,,,0.04,weatherlink.com 1.10,2013-03-25 06:06:00,
2013-03-25 04:23:00,36.2,35.0,29.60,ESE,104,0.0,0.0,97,0.00,,,0.04,weatherlink.com 1.10,2013-03-25 06:23:00,
2013-03-25 04:39:00,36.2,35.0,29.61,ESE,104,0.0,2.0,97,0.00,,,0.04,weatherlink.com 1.10,2013-03-25 06:39:00,
2013-03-25 04:55:00,36.3,36.0,29.61,ESE,103,0.0,0.0,97,0.00,,,0.04,weatherlink.com 1.10,2013-03-25 06:55:00,
2013-03-25 05:11:00,36.4,36.0,29.60,ESE,104,1.0,2.0,97,0.01,,,0.05,weatherlink.com 1.10,2013-03-25 07:11:00,
2013-03-25 05:28:00,36.2,35.0,29.60,ESE,104,0.0,2.0,97,0.01,,,0.05,weatherlink.com 1.10,2013-03-25 07:28:00,
2013-03-25 05:44:00,36.1,35.0,29.59,ESE,104,0.0,0.0,97,0.02,,,0.06,weatherlink.com 1.10,2013-03-25 07:44:00,
2013-03-25 06:00:00,36.1,35.0,29.59,ESE,103,0.0,2.0,97,0.01,,,0.06,weatherlink.com 1.10,2013-03-25 08:00:00,
2013-03-25 06:17:00,36.1,35.0,29.59,ESE,104,0.0,0.0,97,0.01,,,0.06,weatherlink.com 1.10,2013-03-25 08:17:00,
2013-03-25 06:33:00,36.2,35.0,29.58,ESE,104,1.0,2.0,97,0.01,,,0.06,weatherlink.com 1.10,2013-03-25 08:33:00,
2013-03-25 06:50:00,36.4,36.0,29.58,ESE,104,0.0,3.0,97,0.00,,,0.06,weatherlink.com 1.10,2013-03-25 08:50:00,
2013-03-25 07:06:00,36.4,36.0,29.59,ESE,105,1.0,2.0,97,0.00,,,0.06,weatherlink.com 1.10,2013-03-25 09:06:00,
2013-03-25 07:22:00,36.1,35.0,29.59,ESE,107,0.0,3.0,97,0.00,,,0.06,weatherlink.com 1.10,2013-03-25 09:22:00,
2013-03-25 07:38:00,36.0,35.0,29.59,ESE,106,1.0,2.0,97,0.00,,,0.06,weatherlink.com 1.10,2013-03-25 09:38:00,
2013-03-25 07:55:00,35.5,35.0,29.59,SSE,166,1.0,3.0,97,0.00,,,0.06,weatherlink.com 1.10,2013-03-25 09:55:00,
2013-03-25 08:11:00,35.1,34.0,29.59,SW,226,3.0,5.0,97,0.00,,,0.06,weatherlink.com 1.10,2013-03-25 10:11:00,
2013-03-25 08:27:00,34.5,33.0,29.60,West,279,5.0,9.0,96,0.00,,,0.06,weatherlink.com 1.10,2013-03-25 10:27:00,
2013-03-25 08:44:00,34.4,33.0,29.61,WNW,286,5.0,5.0,94,0.00,,,0.06,weatherlink.com 1.10,2013-03-25 10:44:00,
2013-03-25 09:00:00,34.8,32.0,29.61,SW,225,2.0,7.0,90,0.00,,,0.06,weatherlink.com 1.10,2013-03-25 11:00:00,
2013-03-25 09:17:00,34.7,32.0,29.61,West,274,2.0,6.0,88,0.00,,,0.06,weatherlink.com 1.10,2013-03-25 11:17:00,
2013-03-25 09:33:00,35.7,31.0,29.62,West,273,4.0,10.0,83,0.00,,,0.06,weatherlink.com 1.10,2013-03-25 11:33:00,
2013-03-25 09:49:00,35.6,31.0,29.63,WSW,257,6.0,9.0,83,0.00,,,0.06,weatherlink.com 1.10,2013-03-25 11:49:00,
2013-03-25 10:06:00,35.6,30.0,29.64,WNW,288,9.0,12.0,80,0.00,,,0.06,weatherlink.com 1.10,2013-03-25 12:06:00,
2013-03-25 10:22:00,36.2,29.0,29.65,West,271,8.0,16.0,76,0.00,,,0.06,weatherlink.com 1.10,2013-03-25 12:22:00,
2013-03-25 10:39:00,37.0,29.0,29.65,WSW,252,12.0,16.0,74,0.00,,,0.06,weatherlink.com 1.10,2013-03-25 12:39:00,
2013-03-25 10:55:00,37.7,29.0,29.65,WSW,244,7.0,15.0,72,0.00,,,0.06,weatherlink.com 1.10,2013-03-25 12:55:00,
2013-03-25 11:11:00,37.7,28.0,29.65,WNW,288,13.0,21.0,69,0.00,,,0.06,weatherlink.com 1.10,2013-03-25 13:11:00,
2013-03-25 11:28:00,37.7,27.0,29.65,West,263,17.0,25.0,66,0.00,,,0.06,weatherlink.com 1.10,2013-03-25 13:28:00,
2013-03-25 11:44:00,38.6,29.0,29.65,WNW,292,18.0,29.0,67,0.00,,,0.06,weatherlink.com 1.10,2013-03-25 13:44:00,
2013-03-25 12:00:00,38.5,27.0,29.66,West,271,10.0,29.0,64,0.00,,,0.06,weatherlink.com 1.10,2013-03-25 14:00:00,
2013-03-25 12:17:00,38.9,28.0,29.66,West,272,12.0,26.0,64,0.00,,,0.06,weatherlink.com 1.10,2013-03-25 14:17:00,
2013-03-25 12:34:00,39.4,27.0,29.67,WNW,287,19.0,31.0,60,0.00,,,0.06,weatherlink.com 1.10,2013-03-25 14:34:00,
2013-03-25 12:50:00,40.0,27.0,29.68,West,273,10.0,22.0,59,0.00,,,0.06,weatherlink.com 1.10,2013-03-25 14:50:00,
2013-03-25 13:06:00,40.2,26.0,24.01,West,273,22.0,26.0,57,0.00,,,0.06,weatherlink.com 1.10,2013-03-25 15:06:00,
2013-03-25 13:23:00,40.0,26.0,29.69,West,276,10.0,28.0,57,0.00,,,0.06,weatherlink.com 1.10,2013-03-25 15:23:00,
2013-03-25 13:39:00,40.9,28.0,29.69,WSW,257,15.0,24.0,59,0.00,,,0.06,weatherlink.com 1.10,2013-03-25 15:39:00,
2013-03-25 13:55:00,39.0,27.0,29.70,NW,307,10.0,28.0,61,0.00,,,0.06,weatherlink.com 1.10,2013-03-25 15:55:00,
2013-03-25 14:12:00,38.8,26.0,29.71,West,261,8.0,28.0,59,0.00,,,0.06,weatherlink.com 1.10,2013-03-25 16:12:00,
2013-03-25 14:28:00,40.3,28.0,24.04,West,281,17.0,28.0,60,0.00,,,0.06,weatherlink.com 1.10,2013-03-25 16:28:00,
2013-03-25 14:44:00,39.9,26.0,29.72,West,276,13.0,24.0,58,0.00,,,0.06,weatherlink.com 1.10,2013-03-25 16:44:00,
2013-03-25 15:17:00,41.2,28.0,29.71,WNW,299,24.0,27.0,60,0.00,,,0.06,weatherlink.com 1.10,2013-03-25 17:17:00,
2013-03-25 15:34:00,41.5,27.0,29.71,West,265,14.0,31.0,56,0.00,,,0.06,weatherlink.com 1.10,2013-03-25 17:34:00,
2013-03-25 15:50:00,40.7,25.0,29.71,WNW,286,21.0,31.0,54,0.00,,,0.06,weatherlink.com 1.10,2013-03-25 17:50:00,
2013-03-25 16:07:00,41.8,26.0,29.71,West,264,9.0,25.0,53,0.00,,,0.06,weatherlink.com 1.10,2013-03-25 18:07:00,
2013-03-25 16:23:00,42.9,29.0,29.70,West,272,13.0,29.0,57,0.00,,,0.06,weatherlink.com 1.10,2013-03-25 18:23:00,
2013-03-25 16:40:00,42.5,26.0,29.70,WNW,290,18.0,30.0,52,0.00,,,0.06,weatherlink.com 1.10,2013-03-25 18:40:00,
2013-03-25 16:56:00,40.3,26.0,29.71,West,260,9.0,28.0,56,0.00,,,0.06,weatherlink.com 1.10,2013-03-25 18:56:00,
2013-03-25 17:12:00,42.9,28.0,29.71,West,273,15.0,29.0,55,0.00,,,0.06,weatherlink.com 1.10,2013-03-25 19:12:00,
2013-03-25 17:29:00,42.6,28.0,29.71,WNW,299,12.0,24.0,55,0.00,,,0.06,weatherlink.com 1.10,2013-03-25 19:29:00,
2013-03-25 17:45:00,42.3,28.0,29.72,WSW,250,17.0,27.0,56,0.00,,,0.06,weatherlink.com 1.10,2013-03-25 19:45:00,
2013-03-25 18:01:00,40.7,26.0,24.05,West,265,11.0,26.0,56,0.00,,,0.06,weatherlink.com 1.10,2013-03-25 20:01:00,
2013-03-25 18:18:00,42.3,27.0,24.06,West,273,15.0,23.0,54,0.00,,,0.06,weatherlink.com 1.10,2013-03-25 20:18:00,
2013-03-25 18:35:00,41.8,26.0,29.73,WNW,284,20.0,30.0,54,0.00,,,0.06,weatherlink.com 1.10,2013-03-25 20:35:00,
2013-03-25 19:07:00,40.7,25.0,29.74,WNW,288,9.0,25.0,54,0.00,,,0.06,weatherlink.com 1.10,2013-03-25 21:07:00,
2013-03-25 19:24:00,40.8,26.0,29.75,West,275,18.0,30.0,55,0.00,,,0.06,weatherlink.com 1.10,2013-03-25 21:24:00,
2013-03-25 19:40:00,41.0,26.0,29.75,West,265,19.0,22.0,56,0.00,,,0.06,weatherlink.com 1.10,2013-03-25 21:40:00,
2013-03-25 19:56:00,40.8,27.0,29.76,West,273,12.0,23.0,58,0.00,,,0.06,weatherlink.com 1.10,2013-03-25 21:56:00,
2013-03-25 20:15:00,41.0,27.0,29.77,West,280,16.0,27.0,58,0.00,,,0.06,weatherlink.com 1.10,2013-03-25 22:15:00,
2013-03-25 20:29:00,39.3,26.0,29.79,West,275,11.0,24.0,59,0.00,,,0.06,weatherlink.com 1.10,2013-03-25 22:29:00,
2013-03-25 20:45:00,39.1,28.0,29.79,West,281,13.0,19.0,63,0.00,,,0.06,weatherlink.com 1.10,2013-03-25 22:45:00,
2013-03-25 21:02:00,38.6,27.0,29.80,West,277,6.0,17.0,62,0.00,,,0.06,weatherlink.com 1.10,2013-03-25 23:02:00,
2013-03-25 21:19:00,38.4,26.0,29.81,WNW,303,9.0,14.0,61,0.00,,,0.06,weatherlink.com 1.10,2013-03-25 23:19:00,
2013-03-25 21:35:00,38.4,25.0,29.82,West,281,12.0,18.0,59,0.00,,,0.06,weatherlink.com 1.10,2013-03-25 23:35:00,
2013-03-25 21:51:00,37.7,25.0,29.83,West,277,2.0,13.0,61,0.00,,,0.06,weatherlink.com 1.10,2013-03-25 23:51:00,
2013-03-25 22:08:00,36.6,26.0,29.84,West,273,4.0,8.0,65,0.00,,,0.06,weatherlink.com 1.10,2013-03-26 00:08:00,
2013-03-25 22:24:00,36.2,27.0,29.84,West,263,15.0,24.0,69,0.00,,,0.06,weatherlink.com 1.10,2013-03-26 00:24:00,
2013-03-25 22:40:00,35.1,28.0,29.85,WNW,288,12.0,18.0,74,0.00,,,0.06,weatherlink.com 1.10,2013-03-26 00:40:00,
2013-03-25 22:57:00,35.0,28.0,29.86,WNW,292,9.0,16.0,75,0.00,,,0.06,weatherlink.com 1.10,2013-03-26 00:57:00,
2013-03-25 23:13:00,35.3,28.0,29.86,WNW,283,7.0,13.0,74,0.00,,,0.06,weatherlink.com 1.10,2013-03-26 01:13:00,
2013-03-25 23:29:00,34.7,27.0,29.87,WNW,302,4.0,11.0,74,0.00,,,0.06,weatherlink.com 1.10,2013-03-26 01:29:00,
2013-03-25 23:46:00,34.4,27.0,29.88,West,280,11.0,14.0,74,0.00,,,0.06,weatherlink.com 1.10,2013-03-26 01:46:00,